createdAt,value
2022-12-14T00:04:24.725Z,17.73
2022-12-14T00:09:27.971Z,22.43
2022-12-14T00:14:32.709Z,27.93
2022-12-14T00:19:42.858Z,21.03
2022-12-14T00:24:46.138Z,24.57
2022-12-14T00:29:50.870Z,24.90
2022-12-14T00:34:54.210Z,20.83
2022-12-14T00:39:57.439Z,23.50
2022-12-14T00:45:03.488Z,24.20
2022-12-14T00:50:07.578Z,20.57
2022-12-14T00:55:11.994Z,22.83
2022-12-14T01:00:17.538Z,22.40
2022-12-14T01:05:22.093Z,20.23
2022-12-14T01:10:25.539Z,23.60
2022-12-14T01:15:30.279Z,20.87
2022-12-14T01:20:33.664Z,21.23
2022-12-14T01:25:37.026Z,22.63
2022-12-14T01:30:42.229Z,20.47
2022-12-14T01:35:45.610Z,21.57
2022-12-14T01:40:48.946Z,23.07
2022-12-14T01:45:57.232Z,20.00
2022-12-14T01:51:01.841Z,21.83
2022-12-14T01:56:07.223Z,21.47
2022-12-14T02:01:12.498Z,18.17
2022-12-14T02:06:20.941Z,18.90
2022-12-14T02:11:34.393Z,23.93
2022-12-14T02:16:40.664Z,18.77
2022-12-14T02:22:08.060Z,28.10
2022-12-14T02:27:43.880Z,20.67
2022-12-14T02:33:14.386Z,20.27
2022-12-14T02:38:40.076Z,23.83
2022-12-14T02:43:51.964Z,19.10
2022-12-14T02:49:03.388Z,22.87
2022-12-14T02:54:12.882Z,21.47
2022-12-14T02:59:19.265Z,20.43
2022-12-14T03:04:25.587Z,23.57
2022-12-14T03:09:31.038Z,25.03
2022-12-14T03:14:40.023Z,25.23
2022-12-14T03:19:49.320Z,26.07
2022-12-14T03:24:56.331Z,24.43
2022-12-14T03:30:04.986Z,25.77
2022-12-14T03:35:14.510Z,24.67
2022-12-14T03:40:21.707Z,21.97
2022-12-14T03:45:31.535Z,26.90
2022-12-14T03:50:41.362Z,23.17
2022-12-14T03:55:54.853Z,24.73
2022-12-14T04:01:04.262Z,26.53
2022-12-14T04:06:13.894Z,26.90
2022-12-14T04:11:37.293Z,24.73
2022-12-14T04:17:07.195Z,26.87
2022-12-14T04:22:15.146Z,27.33
2022-12-14T04:27:23.247Z,24.47
2022-12-14T04:32:31.726Z,26.40
2022-12-14T04:37:40.080Z,26.10
2022-12-14T04:42:47.971Z,25.33
2022-12-14T04:47:58.315Z,24.03
2022-12-14T04:53:07.776Z,26.23
2022-12-14T04:58:15.945Z,24.80
2022-12-14T05:03:27.504Z,26.60
2022-12-14T05:08:47.940Z,27.63
2022-12-14T05:13:52.224Z,23.40
2022-12-14T05:18:55.506Z,26.53
2022-12-14T05:24:02.429Z,33.63
2022-12-14T05:29:05.843Z,26.70
2022-12-14T05:34:09.102Z,30.73
2022-12-14T05:39:13.946Z,29.07
2022-12-14T05:44:17.317Z,32.07
2022-12-14T05:49:20.588Z,24.17
2022-12-14T05:54:26.355Z,27.40
2022-12-14T05:59:31.097Z,28.70
2022-12-14T06:04:34.446Z,25.50
2022-12-14T06:09:39.375Z,30.50
2022-12-14T06:14:42.630Z,23.97
2022-12-14T06:19:49.770Z,26.83
2022-12-14T06:24:55.320Z,29.67
2022-12-14T06:29:58.656Z,26.07
2022-12-14T06:35:02.018Z,26.90
2022-12-14T06:40:08.071Z,27.33
2022-12-14T06:45:12.366Z,26.57
2022-12-14T06:50:15.795Z,26.07
2022-12-14T06:55:20.746Z,25.73
2022-12-14T07:00:25.605Z,27.33
2022-12-14T07:05:28.936Z,29.73
2022-12-14T07:10:35.638Z,29.93
2022-12-14T07:15:39.697Z,29.73
2022-12-14T07:20:43.259Z,32.63
2022-12-14T07:25:47.937Z,31.57
2022-12-14T07:30:56.790Z,26.07
2022-12-14T07:36:04.399Z,29.23
2022-12-14T07:41:11.179Z,29.67
2022-12-14T07:46:16.280Z,30.57
2022-12-14T07:51:25.999Z,29.80
2022-12-14T07:56:35.768Z,24.03
2022-12-14T08:01:39.993Z,43.53
2022-12-14T08:06:44.250Z,28.80
2022-12-14T08:11:49.238Z,31.43
2022-12-14T08:16:52.601Z,30.97
2022-12-14T08:21:55.820Z,32.00
2022-12-14T08:27:00.480Z,33.73
2022-12-14T08:32:03.736Z,30.73
2022-12-14T08:37:06.924Z,29.37
2022-12-14T08:42:11.602Z,29.13
2022-12-14T08:47:14.823Z,33.97
2022-12-14T08:52:18.219Z,27.63
2022-12-14T08:57:22.838Z,32.97
2022-12-14T09:02:26.268Z,30.97
2022-12-14T09:07:30.236Z,32.73
2022-12-14T09:12:36.308Z,34.63
2022-12-14T09:17:39.765Z,34.27
2022-12-14T09:22:43.078Z,33.80
2022-12-14T09:27:47.805Z,32.90
2022-12-14T09:32:51.082Z,33.53
2022-12-14T09:37:54.536Z,33.93
2022-12-14T09:43:05.731Z,25.60
2022-12-14T09:48:18.488Z,29.13
2022-12-14T09:53:22.746Z,30.23
2022-12-14T09:58:30.288Z,32.70
2022-12-14T10:03:48.307Z,29.60
2022-12-14T10:09:00.050Z,33.07
2022-12-14T10:14:14.469Z,31.00
2022-12-14T10:19:34.174Z,32.13
2022-12-14T10:24:43.693Z,28.10
2022-12-14T10:29:54.362Z,36.63
2022-12-14T10:34:59.685Z,36.47
2022-12-14T10:40:27.468Z,34.20
2022-12-14T10:45:42.991Z,38.10
2022-12-14T10:50:54.986Z,36.60
2022-12-14T10:56:03.129Z,38.50
2022-12-14T11:01:13.575Z,36.23
2022-12-14T11:06:23.122Z,33.77
2022-12-14T11:11:28.215Z,32.23
2022-12-14T11:16:38.438Z,35.33
2022-12-14T11:21:41.908Z,38.40
2022-12-14T11:26:45.519Z,36.03
2022-12-14T11:31:52.913Z,35.40
2022-12-14T11:36:56.353Z,34.87
2022-12-14T11:42:03.653Z,33.00
2022-12-14T11:47:14.432Z,36.87
2022-12-14T11:52:20.933Z,36.10
2022-12-14T11:57:28.914Z,34.43
2022-12-14T12:02:36.272Z,32.27
2022-12-14T12:07:43.352Z,42.53
2022-12-14T12:12:54.654Z,40.10
2022-12-14T12:18:03.832Z,38.20
2022-12-14T12:23:14.413Z,38.37
2022-12-14T12:28:23.352Z,31.20
2022-12-14T12:33:34.963Z,28.53
2022-12-14T12:38:57.768Z,33.63
2022-12-14T12:44:07.778Z,33.13
2022-12-14T12:49:15.501Z,81.30
2022-12-14T12:54:24.044Z,53.40
2022-12-14T12:59:36.311Z,30.17
2022-12-14T13:04:47.794Z,31.57
2022-12-14T13:10:05.295Z,30.40
2022-12-14T13:15:19.526Z,35.10
2022-12-14T13:20:27.140Z,35.17
2022-12-14T13:25:39.755Z,40.03
2022-12-14T13:31:08.745Z,40.63
2022-12-14T13:36:49.146Z,27.83
2022-12-14T13:41:59.163Z,25.17
2022-12-14T13:47:05.330Z,28.70
2022-12-14T13:52:33.763Z,26.47
2022-12-14T13:57:37.095Z,27.67
2022-12-14T14:02:41.845Z,31.43
2022-12-14T14:07:59.519Z,29.67
2022-12-14T14:13:23.820Z,31.30
2022-12-14T14:18:29.391Z,35.40
2022-12-14T14:23:39.796Z,35.10
2022-12-14T14:28:43.537Z,33.97
2022-12-14T14:33:57.096Z,31.93
2022-12-14T14:39:10.660Z,30.83
2022-12-14T14:44:35.007Z,32.53
2022-12-14T14:49:42.183Z,28.13
2022-12-14T14:55:16.297Z,28.67
2022-12-14T15:00:12.936Z,32.00
2022-12-14T15:10:46.726Z,26.13
2022-12-14T15:15:56.529Z,30.13
2022-12-14T15:21:03.237Z,34.17
2022-12-14T15:26:20.044Z,29.60
2022-12-14T15:31:32.085Z,31.40
2022-12-14T15:36:38.099Z,32.50
2022-12-14T15:41:43.043Z,43.47
2022-12-14T15:46:56.737Z,45.67
2022-12-14T15:52:04.648Z,45.83
2022-12-14T15:57:18.028Z,53.97
2022-12-14T16:02:27.733Z,53.67
2022-12-14T16:07:39.014Z,53.40
2022-12-14T16:12:46.890Z,56.30
2022-12-14T16:17:54.820Z,46.90
2022-12-14T16:23:06.492Z,56.07
2022-12-14T16:28:29.527Z,50.67
2022-12-14T16:33:35.734Z,56.10
2022-12-14T16:38:54.594Z,55.90
2022-12-14T16:44:02.025Z,53.90
2022-12-14T16:49:29.373Z,54.60
2022-12-14T16:54:34.063Z,55.10
2022-12-14T16:59:42.817Z,52.03
2022-12-14T17:04:49.773Z,51.60
2022-12-14T17:09:54.560Z,47.17
2022-12-14T17:15:00.042Z,52.63
2022-12-14T17:20:13.650Z,57.67
2022-12-14T17:25:17.939Z,54.00
2022-12-14T17:30:25.204Z,57.47
2022-12-14T17:35:32.399Z,57.97
2022-12-14T17:40:35.730Z,63.83
2022-12-14T17:45:42.200Z,64.67
2022-12-14T17:50:47.498Z,63.93
2022-12-14T17:55:50.712Z,64.13
2022-12-14T18:01:01.511Z,50.20
2022-12-14T18:06:05.627Z,47.23
2022-12-14T18:11:13.651Z,41.17
2022-12-14T18:16:20.792Z,53.23
2022-12-14T18:21:26.171Z,43.17
2022-12-14T18:26:29.498Z,39.47
2022-12-14T18:31:36.451Z,49.03
2022-12-14T18:36:39.966Z,41.20
2022-12-14T18:41:43.532Z,43.67
2022-12-14T18:46:49.375Z,40.30
2022-12-14T18:51:53.086Z,33.43
2022-12-14T18:56:56.827Z,35.90
2022-12-14T19:02:02.332Z,33.40
2022-12-14T19:07:05.836Z,37.13
2022-12-14T19:12:11.128Z,38.70
2022-12-14T19:17:17.269Z,35.83
2022-12-14T19:22:27.208Z,30.63
2022-12-14T19:28:11.551Z,41.97
2022-12-14T19:32:57.515Z,33.37
2022-12-14T19:38:00.935Z,41.30
2022-12-14T19:43:05.804Z,30.03
2022-12-14T19:48:13.427Z,35.37
2022-12-14T19:53:23.049Z,41.17
2022-12-14T19:58:27.179Z,36.87
2022-12-14T20:03:33.491Z,34.20
2022-12-14T20:08:39.052Z,39.63
2022-12-14T20:13:42.532Z,37.93
2022-12-14T20:18:47.722Z,36.87
2022-12-14T20:23:51.215Z,40.97
2022-12-14T20:29:01.097Z,41.13
2022-12-14T20:34:08.505Z,41.23
2022-12-14T20:39:11.947Z,38.53
2022-12-14T20:44:16.759Z,35.83
2022-12-14T20:49:29.583Z,41.03
2022-12-14T20:54:33.170Z,37.10
2022-12-14T20:59:36.478Z,31.33
2022-12-14T21:04:44.347Z,34.53
2022-12-14T21:09:47.832Z,39.77
2022-12-14T21:14:54.607Z,34.10
2022-12-14T21:19:59.241Z,34.17
2022-12-14T21:25:04.712Z,38.27
2022-12-14T21:30:11.996Z,38.17
2022-12-14T21:35:18.560Z,41.03
2022-12-14T21:40:39.797Z,37.07
2022-12-14T21:45:44.802Z,36.93
2022-12-14T21:50:50.783Z,34.87
2022-12-14T21:56:15.138Z,35.63
2022-12-14T22:01:19.117Z,36.33
2022-12-14T22:06:23.938Z,36.10
2022-12-14T22:11:27.574Z,35.03
2022-12-14T22:16:32.466Z,40.33
2022-12-14T22:21:38.693Z,33.47
2022-12-14T22:26:42.471Z,35.17
2022-12-14T22:31:45.951Z,32.67
2022-12-14T22:36:53.633Z,33.87
2022-12-14T22:41:57.008Z,32.90
2022-12-14T22:47:00.383Z,31.17
2022-12-14T22:52:11.356Z,30.37
2022-12-14T22:57:18.442Z,30.77
2022-12-14T23:02:22.170Z,34.03
2022-12-14T23:07:36.428Z,36.30
2022-12-14T23:12:58.079Z,36.27
2022-12-14T23:18:20.431Z,38.50
2022-12-14T23:23:43.932Z,34.67
2022-12-14T23:29:05.217Z,37.90
2022-12-14T23:34:26.990Z,36.47
2022-12-14T23:39:49.217Z,40.33
2022-12-14T23:45:09.860Z,35.40
2022-12-14T23:50:30.846Z,35.50
2022-12-14T23:55:53.271Z,37.40
